Terminal Aerodrome Forecast
Issued by NWS

Home | Current Version | Previous Version | Text Only | Print | Product List | Glossary Off
Versions: 1 2 3 4 5 6 7 8 9 10 11 12 13 14 15 16 17 18 19 20 21 22 23 24 25 26 27 28 29 30 31 32 33 34 35

000
FTUS43 KLOT 271500 AAB
TAFMDW
TAF AMD
KMDW 271559Z 2716/2812 12005KT P6SM SCT250
     FM271900 08008KT P6SM SCT250
      TEMPO 2719/2721 08011KT
     FM280200 08004KT P6SM SCT300=

USA.gov is the U.S. government's official web portal to all federal, state and local government web resources and services.